createdAt,value
2018-12-03T00:02:01.930Z,38.57
2018-12-03T00:04:32.052Z,37.60
2018-12-03T00:07:01.982Z,31.77
2018-12-03T00:09:31.852Z,34.43
2018-12-03T00:12:01.749Z,29.13
2018-12-03T00:14:31.618Z,32.00
2018-12-03T00:17:01.487Z,32.70
2018-12-03T00:19:31.472Z,32.77
2018-12-03T00:22:01.413Z,32.20
2018-12-03T00:24:31.602Z,31.23
2018-12-03T00:27:01.712Z,30.60
2018-12-03T00:29:31.750Z,30.07
2018-12-03T00:32:01.800Z,28.93
2018-12-03T00:34:31.824Z,30.77
2018-12-03T00:37:01.742Z,29.80
2018-12-03T00:39:31.835Z,23.77
2018-12-03T00:42:01.781Z,30.33
2018-12-03T00:44:31.765Z,31.37
2018-12-03T00:47:01.683Z,26.03
2018-12-03T00:49:31.554Z,31.53
2018-12-03T00:52:01.396Z,29.67
2018-12-03T00:54:31.287Z,28.63
2018-12-03T00:57:01.126Z,26.60
2018-12-03T00:59:30.910Z,29.13
2018-12-03T01:02:00.725Z,27.67
2018-12-03T01:04:30.556Z,26.63
2018-12-03T01:07:00.394Z,27.00
2018-12-03T01:09:30.191Z,23.80
2018-12-03T01:12:00.069Z,26.07
2018-12-03T01:14:29.857Z,25.57
2018-12-03T01:16:59.777Z,27.27
2018-12-03T01:19:29.610Z,25.23
2018-12-03T01:21:59.494Z,19.80
2018-12-03T01:24:29.278Z,26.50
2018-12-03T01:26:59.087Z,27.87
2018-12-03T01:29:28.965Z,28.97
2018-12-03T01:31:58.832Z,26.10
2018-12-03T01:34:28.596Z,28.50
2018-12-03T01:36:58.290Z,24.50
2018-12-03T01:39:28.095Z,24.80
2018-12-03T01:41:57.825Z,20.23
2018-12-03T01:44:27.620Z,23.63
2018-12-03T01:46:58.402Z,22.87
2018-12-03T01:49:28.256Z,24.70
2018-12-03T01:51:58.072Z,22.57
2018-12-03T01:54:27.917Z,24.70
2018-12-03T01:56:57.713Z,22.70
2018-12-03T01:59:27.542Z,18.67
2018-12-03T02:01:58.475Z,21.90
2018-12-03T02:04:34.767Z,19.83
2018-12-03T02:07:04.566Z,25.97
2018-12-03T02:09:34.357Z,20.23
2018-12-03T02:12:04.171Z,24.93
2018-12-03T02:14:33.901Z,21.63
2018-12-03T02:17:03.646Z,21.27
2018-12-03T02:19:33.407Z,17.73
2018-12-03T02:22:03.177Z,22.30
2018-12-03T02:24:32.935Z,21.70
2018-12-03T02:27:02.713Z,20.27
2018-12-03T02:29:32.445Z,19.53
2018-12-03T02:32:02.180Z,13.90
2018-12-03T02:34:31.902Z,18.37
2018-12-03T02:37:01.775Z,19.00
2018-12-03T02:39:31.579Z,15.63
2018-12-03T02:42:01.529Z,19.53
2018-12-03T02:44:31.378Z,18.37
2018-12-03T02:47:01.112Z,15.97
2018-12-03T02:49:30.910Z,18.07
2018-12-03T02:52:00.752Z,14.73
2018-12-03T02:54:30.530Z,17.57
2018-12-03T02:57:00.344Z,17.77
2018-12-03T02:59:30.109Z,18.13
2018-12-03T03:01:59.883Z,18.43
2018-12-03T03:04:30.691Z,14.50
2018-12-03T03:07:00.509Z,18.13
2018-12-03T03:09:30.471Z,18.70
2018-12-03T03:12:00.243Z,20.93
2018-12-03T03:14:29.993Z,14.77
2018-12-03T03:16:59.754Z,20.67
2018-12-03T03:19:29.619Z,24.33
2018-12-03T03:21:59.453Z,17.97
2018-12-03T03:24:29.192Z,21.67
2018-12-03T03:26:59.007Z,23.23
2018-12-03T03:29:28.726Z,22.43
2018-12-03T03:31:58.514Z,24.83
2018-12-03T03:34:28.325Z,23.90
2018-12-03T03:36:58.208Z,25.03
2018-12-03T03:39:28.146Z,25.90
2018-12-03T03:41:58.021Z,23.67
2018-12-03T03:44:27.858Z,24.30
2018-12-03T03:46:57.676Z,28.27
2018-12-03T03:49:27.521Z,26.80
2018-12-03T03:51:57.350Z,28.03
2018-12-03T03:54:27.149Z,25.17
2018-12-03T03:56:56.969Z,25.40
2018-12-03T03:59:26.817Z,19.80
2018-12-03T04:01:56.433Z,21.73
2018-12-03T04:04:26.141Z,21.30
2018-12-03T04:06:55.877Z,20.37
2018-12-03T04:09:25.784Z,19.47
2018-12-03T04:11:55.610Z,22.10
2018-12-03T04:14:25.436Z,20.40
2018-12-03T04:16:55.193Z,18.87
2018-12-03T04:19:24.935Z,17.07
2018-12-03T04:21:54.798Z,19.63
2018-12-03T04:24:24.712Z,17.17
2018-12-03T04:26:54.427Z,15.20
2018-12-03T04:29:24.238Z,16.67
2018-12-03T04:31:53.945Z,18.70
2018-12-03T04:34:23.803Z,17.70
2018-12-03T04:36:53.609Z,18.07
2018-12-03T04:39:23.406Z,21.13
2018-12-03T04:41:53.215Z,19.40
2018-12-03T04:44:23.050Z,17.87
2018-12-03T04:46:52.894Z,21.80
2018-12-03T04:49:22.613Z,23.63
2018-12-03T04:51:52.365Z,18.13
2018-12-03T04:54:22.072Z,25.13
2018-12-03T04:56:51.840Z,24.17
2018-12-03T04:59:21.691Z,24.43
2018-12-03T05:01:51.658Z,24.07
2018-12-03T05:04:21.541Z,24.50
2018-12-03T05:06:51.676Z,27.30
2018-12-03T05:09:21.274Z,27.53
2018-12-03T05:11:51.069Z,27.50
2018-12-03T05:14:20.925Z,30.43
2018-12-03T05:16:50.810Z,23.10
2018-12-03T05:19:21.573Z,27.97
2018-12-03T05:21:51.371Z,22.73
2018-12-03T05:24:21.334Z,20.20
2018-12-03T05:26:51.092Z,22.87
2018-12-03T05:29:20.973Z,19.57
2018-12-03T05:31:50.785Z,21.00
2018-12-03T05:34:20.474Z,22.03
2018-12-03T05:36:50.334Z,23.93
2018-12-03T05:39:20.276Z,25.03
2018-12-03T05:41:50.170Z,24.37
2018-12-03T05:44:20.066Z,26.30
2018-12-03T05:46:49.841Z,25.77
2018-12-03T05:49:19.822Z,27.50
2018-12-03T05:51:49.980Z,24.63
2018-12-03T05:54:20.007Z,23.50
2018-12-03T05:56:49.891Z,28.93
2018-12-03T05:59:19.692Z,28.30
2018-12-03T06:01:49.429Z,28.67
2018-12-03T06:04:19.369Z,29.63
2018-12-03T06:06:49.217Z,30.33
2018-12-03T06:09:18.974Z,29.63
2018-12-03T06:11:48.762Z,25.00
2018-12-03T06:14:18.629Z,27.97
2018-12-03T06:16:48.361Z,24.83
2018-12-03T06:19:18.321Z,25.60
2018-12-03T06:21:52.166Z,25.53
2018-12-03T06:24:22.045Z,26.73
2018-12-03T06:26:51.917Z,25.50
2018-12-03T06:29:21.723Z,28.03
2018-12-03T06:32:03.486Z,31.33
2018-12-03T06:34:36.151Z,26.87
2018-12-03T06:37:06.179Z,27.90
2018-12-03T06:39:36.189Z,26.77
2018-12-03T06:42:06.364Z,27.00
2018-12-03T06:44:36.206Z,25.20
2018-12-03T06:47:07.262Z,28.03
2018-12-03T06:49:37.200Z,24.77
2018-12-03T06:52:07.273Z,28.37
2018-12-03T06:54:37.142Z,28.47
2018-12-03T06:57:07.402Z,28.17
2018-12-03T06:59:37.355Z,28.13
2018-12-03T07:02:07.817Z,29.70
2018-12-03T07:04:37.936Z,31.90
2018-12-03T07:07:08.017Z,30.57
2018-12-03T07:09:38.005Z,29.70
2018-12-03T07:12:08.110Z,28.50
2018-12-03T07:14:38.120Z,31.20
2018-12-03T07:17:08.264Z,30.93
2018-12-03T07:19:38.570Z,29.37
2018-12-03T07:22:08.592Z,30.23
2018-12-03T07:24:38.649Z,27.70
2018-12-03T07:27:08.798Z,28.57
2018-12-03T07:29:38.712Z,29.23
2018-12-03T07:32:08.794Z,29.97
2018-12-03T07:34:39.066Z,28.03
2018-12-03T07:37:09.164Z,34.33
2018-12-03T07:39:39.074Z,37.63
2018-12-03T07:42:09.050Z,37.13
2018-12-03T07:44:39.000Z,38.50
2018-12-03T07:47:08.989Z,39.73
2018-12-03T07:49:38.754Z,41.67
2018-12-03T07:52:09.144Z,44.00
2018-12-03T07:54:39.119Z,36.20
2018-12-03T07:57:09.183Z,44.43
2018-12-03T07:59:38.984Z,44.07
2018-12-03T15:25:53.485Z,26.57
2018-12-03T15:28:23.430Z,24.93
2018-12-03T15:30:53.497Z,25.93
2018-12-03T15:33:23.717Z,22.73
2018-12-03T15:35:54.288Z,25.07
2018-12-03T15:38:24.552Z,20.30
2018-12-03T15:40:55.552Z,26.03
2018-12-03T15:43:25.689Z,22.53
2018-12-03T15:45:55.428Z,19.77
2018-12-03T15:48:26.395Z,22.53
2018-12-03T15:50:56.172Z,20.43
2018-12-03T15:53:25.902Z,19.53
2018-12-03T15:55:55.763Z,17.30
2018-12-03T15:58:25.414Z,19.33
2018-12-03T16:00:55.354Z,16.27
2018-12-03T16:03:25.105Z,18.20
2018-12-03T16:05:54.961Z,16.50
2018-12-03T16:08:24.800Z,17.67
2018-12-03T16:10:54.791Z,17.63
2018-12-03T16:13:31.665Z,21.33
2018-12-03T16:16:03.937Z,22.83
2018-12-03T16:18:34.866Z,20.83
2018-12-03T16:21:08.250Z,20.80
2018-12-03T16:23:55.913Z,18.80
2018-12-03T16:26:25.901Z,17.43
2018-12-03T16:28:55.528Z,23.27
2018-12-03T16:31:26.279Z,20.93
2018-12-03T16:33:56.077Z,20.47
2018-12-03T16:36:26.045Z,22.10
2018-12-03T16:38:55.808Z,20.53
2018-12-03T16:41:25.477Z,20.57
2018-12-03T16:43:55.157Z,21.63
2018-12-03T16:46:24.823Z,25.13
2018-12-03T16:48:54.476Z,25.97
2018-12-03T16:51:24.167Z,23.97
2018-12-03T16:53:53.772Z,23.10
2018-12-03T16:56:23.379Z,22.63
2018-12-03T16:58:52.978Z,23.90
2018-12-03T17:01:22.644Z,25.57
2018-12-03T17:03:52.266Z,30.00
2018-12-03T17:06:21.857Z,26.77
2018-12-03T17:08:51.535Z,27.30
2018-12-03T17:11:21.105Z,24.30
2018-12-03T17:13:50.802Z,26.00
2018-12-03T17:16:20.354Z,25.83
2018-12-03T17:18:52.047Z,28.20
2018-12-03T17:22:37.521Z,20.30
2018-12-03T17:25:13.252Z,24.70
2018-12-03T17:27:42.948Z,21.57
2018-12-03T17:30:13.403Z,21.47
2018-12-03T17:32:42.939Z,20.43
2018-12-03T17:35:12.647Z,20.13
2018-12-03T17:37:42.333Z,22.00
2018-12-03T17:40:12.368Z,21.87
2018-12-03T17:42:42.055Z,23.87
2018-12-03T17:45:13.355Z,25.37
2018-12-03T17:47:43.117Z,29.23
2018-12-03T17:50:12.713Z,24.07
2018-12-03T17:52:42.490Z,23.43
2018-12-03T17:55:12.235Z,25.97
2018-12-03T17:57:44.194Z,24.93
2018-12-03T18:00:15.054Z,24.33
2018-12-03T18:02:44.852Z,25.67
2018-12-03T18:05:16.078Z,26.80
2018-12-03T18:07:46.768Z,24.83
2018-12-03T18:10:16.427Z,26.23
2018-12-03T18:12:46.152Z,26.63
2018-12-03T18:15:15.927Z,26.90
2018-12-03T18:17:45.518Z,26.80
2018-12-03T18:20:15.212Z,26.43
2018-12-03T18:22:44.951Z,26.87
2018-12-03T18:25:14.684Z,23.97
2018-12-03T18:27:44.419Z,23.13
2018-12-03T18:30:14.224Z,25.30
2018-12-03T18:32:43.870Z,30.20
2018-12-03T18:35:13.638Z,28.23
2018-12-03T18:37:43.339Z,28.37
2018-12-03T18:40:13.816Z,30.33
2018-12-03T18:42:45.495Z,29.70
2018-12-03T18:45:15.212Z,35.30
2018-12-03T18:47:45.044Z,32.73
2018-12-03T18:50:20.205Z,31.90
2018-12-03T18:52:49.933Z,33.13
2018-12-03T18:55:19.620Z,31.87
2018-12-03T18:57:53.329Z,30.80
2018-12-03T19:00:23.262Z,27.10
2018-12-03T19:02:52.938Z,31.20
2018-12-03T19:05:22.698Z,34.87
2018-12-03T19:07:52.481Z,37.70
2018-12-03T19:10:22.305Z,33.77
2018-12-03T19:12:52.528Z,37.57
2018-12-03T19:15:23.520Z,39.37
2018-12-03T19:17:53.766Z,39.00
2018-12-03T19:20:26.335Z,39.07
2018-12-03T19:22:56.128Z,49.90
2018-12-03T19:25:25.762Z,34.87
2018-12-03T19:27:55.551Z,48.90
2018-12-03T19:30:25.179Z,43.57
2018-12-03T19:32:56.878Z,38.70
2018-12-03T19:35:30.152Z,41.43
2018-12-03T19:38:04.163Z,33.93
2018-12-03T19:40:35.227Z,37.93
2018-12-03T19:43:05.774Z,39.27
2018-12-03T19:45:36.968Z,32.77
2018-12-03T19:48:07.452Z,39.77
2018-12-03T19:50:38.961Z,34.87
2018-12-03T19:53:09.996Z,38.50
2018-12-03T19:55:39.894Z,35.20
2018-12-03T19:58:43.167Z,34.27
2018-12-03T20:01:14.926Z,37.97
2018-12-03T20:03:44.823Z,29.57
2018-12-03T20:06:14.762Z,41.93
2018-12-03T20:08:44.435Z,43.33
2018-12-03T20:11:14.355Z,39.20
2018-12-03T20:13:44.002Z,40.20
2018-12-03T20:16:13.881Z,41.70
2018-12-03T20:18:43.731Z,33.70
2018-12-03T20:21:16.799Z,42.20
2018-12-03T20:23:52.311Z,37.73
2018-12-03T20:26:26.922Z,36.83
2018-12-03T20:29:06.980Z,35.77
2018-12-03T20:31:44.086Z,34.70
2018-12-03T20:34:31.708Z,35.87
2018-12-03T20:37:18.721Z,36.93
2018-12-03T20:40:01.167Z,31.37
2018-12-03T20:42:34.607Z,35.20
2018-12-03T20:45:52.719Z,30.83
2018-12-03T20:48:29.424Z,33.33
2018-12-03T20:51:07.601Z,33.80
2018-12-03T20:53:42.889Z,36.70
2018-12-03T20:56:13.081Z,34.50
2018-12-03T20:58:42.871Z,35.07
2018-12-03T21:01:12.689Z,31.07
2018-12-03T21:03:42.734Z,31.83
2018-12-03T21:06:12.732Z,32.20
2018-12-03T21:08:42.699Z,36.20
2018-12-03T21:11:12.657Z,37.90
2018-12-03T21:13:42.694Z,37.03
2018-12-03T21:16:12.652Z,39.57
2018-12-03T21:18:42.456Z,39.23
2018-12-03T21:21:12.954Z,40.50
2018-12-03T21:23:42.751Z,38.23
2018-12-03T21:26:12.772Z,39.67
2018-12-03T21:28:42.974Z,41.00
2018-12-03T21:31:12.946Z,39.93
2018-12-03T21:33:42.926Z,39.53
2018-12-03T21:36:12.891Z,36.63
2018-12-03T21:38:43.001Z,38.17
2018-12-03T21:41:12.837Z,36.97
2018-12-03T21:43:42.601Z,39.10
2018-12-03T21:46:12.345Z,38.27
2018-12-03T21:48:42.033Z,35.67
2018-12-03T21:51:11.844Z,36.37
2018-12-03T21:53:41.780Z,32.47
2018-12-03T21:56:11.624Z,31.67
2018-12-03T21:58:41.485Z,33.13
2018-12-03T22:01:11.356Z,33.07
2018-12-03T22:03:41.274Z,33.53
2018-12-03T22:06:10.997Z,33.50
2018-12-03T22:08:40.778Z,32.90
2018-12-03T22:11:10.590Z,31.70
2018-12-03T22:13:40.535Z,35.37
2018-12-03T22:16:10.332Z,34.30
2018-12-03T22:18:40.277Z,34.63
2018-12-03T22:21:10.283Z,33.70
2018-12-03T22:23:40.163Z,39.27
2018-12-03T22:26:09.958Z,34.97
2018-12-03T22:28:39.882Z,33.73
2018-12-03T22:31:09.717Z,34.97
2018-12-03T22:33:43.554Z,34.63
2018-12-03T22:36:13.703Z,34.67
2018-12-03T22:38:43.561Z,33.60
2018-12-03T22:41:13.618Z,31.27
2018-12-03T22:43:44.408Z,32.03
2018-12-03T22:46:14.340Z,32.53
2018-12-03T22:48:45.463Z,32.77
2018-12-03T22:51:15.361Z,33.77
2018-12-03T22:53:45.395Z,30.17
2018-12-03T22:56:15.113Z,33.47
2018-12-03T22:58:44.843Z,34.53
2018-12-03T23:01:18.905Z,31.83
2018-12-03T23:03:48.877Z,30.50
2018-12-03T23:06:18.738Z,28.53
2018-12-03T23:08:49.714Z,27.80
2018-12-03T23:11:19.449Z,26.93
2018-12-03T23:13:49.281Z,25.90
2018-12-03T23:16:19.124Z,26.47
2018-12-03T23:18:48.988Z,24.17
2018-12-03T23:21:18.810Z,27.77
2018-12-03T23:23:48.609Z,28.37
2018-12-03T23:26:18.723Z,28.10
2018-12-03T23:28:48.446Z,25.47
2018-12-03T23:31:18.358Z,26.70
2018-12-03T23:33:54.410Z,23.67
2018-12-03T23:36:25.315Z,25.53
2018-12-03T23:38:55.091Z,24.87
2018-12-03T23:41:24.973Z,24.23
2018-12-03T23:43:54.608Z,24.27
2018-12-03T23:46:24.365Z,26.00
2018-12-03T23:48:54.076Z,24.47
2018-12-03T23:51:23.800Z,23.37
2018-12-03T23:53:53.569Z,23.40
2018-12-03T23:56:23.356Z,25.07
2018-12-03T23:58:53.190Z,22.43
